Time;durP1;ratioP1;P1;durP2;ratioP2;P2;SDS_P1;SDS_P2;PMS_P1;PMS_P2;Temp;Humidity;BMP_temperature;BMP_pressure;BME280_temperature;BME280_humidity;BME280_pressure;Samples;Min_cycle;Max_cycle;Signal;HPM_P1;HPM_P2
2022/08/13 00:01:36;;;;;;;7.90;1.27;;;;;;;44.10;18.50;100748.63;5083777;28;20443;-59
2022/08/13 00:04:10;;;;;;;3.00;0.88;;;;;;;43.28;19.50;100748.22;5094796;28;20035;-59
2022/08/13 00:09:09;;;;;;;4.32;1.08;;;;;;;42.11;20.66;100749.28;5084582;28;20021;-59
2022/08/13 00:14:29;;;;;;;5.72;0.90;;;;;;;42.18;20.63;100743.22;5079281;28;20268;-59
2022/08/13 00:16:55;;;;;;;8.85;1.10;;;;;;;42.34;20.73;100755.50;5094098;28;20386;-59
2022/08/13 00:19:26;;;;;;;3.03;0.80;;;;;;;42.03;20.36;100748.03;5081431;28;20036;-60
2022/08/13 00:21:54;;;;;;;5.82;1.00;;;;;;;41.88;21.03;100750.00;5091151;28;20511;-59
2022/08/13 00:24:20;;;;;;;4.63;0.90;;;;;;;41.56;21.11;100749.41;5078767;28;20020;-59
2022/08/13 00:26:47;;;;;;;7.25;1.25;;;;;;;41.70;21.42;100752.91;5085910;28;20037;-58
2022/08/13 00:29:15;;;;;;;5.95;1.30;;;;;;;41.85;21.30;100746.03;5085913;28;20026;-59
2022/08/13 00:31:44;;;;;;;9.20;1.35;;;;;;;42.23;20.73;100751.16;5084740;28;20465;-59
2022/08/13 00:34:11;;;;;;;7.22;1.10;;;;;;;42.08;20.80;100735.97;5094214;28;20035;-59
2022/08/13 00:36:38;;;;;;;6.88;1.13;;;;;;;41.92;21.18;100739.97;5093656;28;21054;-59
2022/08/13 00:39:09;;;;;;;8.23;1.10;;;;;;;41.74;21.76;100733.53;5090923;28;20032;-59
2022/08/13 00:41:37;;;;;;;7.28;1.30;;;;;;;41.59;21.97;100748.47;5093762;28;20035;-59
2022/08/13 00:44:11;;;;;;;5.72;0.98;;;;;;;41.38;22.35;100746.59;5092081;28;20074;-59
2022/08/13 00:46:39;;;;;;;5.10;1.30;;;;;;;42.03;21.30;100742.31;5087563;28;20071;-59
2022/08/13 00:49:08;;;;;;;7.85;1.33;;;;;;;42.12;21.67;100738.66;5089000;28;20051;-58
2022/08/13 00:51:37;;;;;;;7.00;1.10;;;;;;;41.66;21.92;100752.28;5087466;28;20123;-58
2022/08/13 00:54:09;;;;;;;5.85;1.15;;;;;;;41.75;21.98;100737.97;5092158;28;20066;-59
2022/08/13 00:56:35;;;;;;;7.85;1.15;;;;;;;41.60;22.25;100738.63;5087124;28;20037;-59
2022/08/13 00:59:12;;;;;;;20.20;1.70;;;;;;;41.83;21.95;100739.22;5081946;28;20484;-59
2022/08/13 01:01:44;;;;;;;7.90;1.23;;;;;;;41.76;21.99;100734.66;5093022;28;20410;-59
2022/08/13 01:04:12;;;;;;;4.07;1.03;;;;;;;41.22;22.61;100736.28;5093355;28;20363;-60
2022/08/13 01:06:39;;;;;;;7.60;1.20;;;;;;;40.69;23.32;100744.31;5093085;28;20057;-59
2022/08/13 01:09:08;;;;;;;11.18;1.90;;;;;;;40.71;23.45;100744.63;5093222;28;20031;-59
2022/08/13 01:11:38;;;;;;;6.57;1.33;;;;;;;40.31;24.15;100751.19;5078525;28;20045;-59
2022/08/13 01:14:07;;;;;;;8.75;1.50;;;;;;;40.07;24.21;100750.16;5091712;28;20172;-59
2022/08/13 01:16:38;;;;;;;7.82;1.50;;;;;;;40.05;24.39;100752.69;5090014;28;20043;-58
2022/08/13 01:19:09;;;;;;;14.57;1.77;;;;;;;40.02;24.65;100747.91;5091303;28;20042;-58
2022/08/13 01:21:42;;;;;;;11.70;1.70;;;;;;;39.98;24.52;100750.88;5078235;28;20107;-59
2022/08/13 01:24:11;;;;;;;11.52;1.60;;;;;;;40.03;24.57;100755.97;5089427;28;20074;-59
2022/08/13 01:26:39;;;;;;;13.43;1.80;;;;;;;39.77;25.26;100763.88;5079501;28;20111;-58
2022/08/13 01:29:08;;;;;;;23.02;2.35;;;;;;;39.61;25.35;100754.78;5082059;28;20025;-59
2022/08/13 01:31:35;;;;;;;15.40;2.20;;;;;;;39.50;25.80;100763.66;5087265;28;20115;-59
2022/08/13 01:34:03;;;;;;;14.05;2.13;;;;;;;39.50;26.30;100769.38;5092904;28;20020;-58
2022/08/13 01:36:33;;;;;;;11.55;2.33;;;;;;;39.22;26.73;100776.91;5086987;28;20094;-59
2022/08/13 01:39:05;;;;;;;11.40;2.05;;;;;;;39.17;26.94;100775.47;5082334;28;20491;-58
2022/08/13 01:41:33;;;;;;;15.10;2.08;;;;;;;39.23;26.45;100779.28;5078591;28;20501;-58
2022/08/13 01:44:04;;;;;;;16.55;2.03;;;;;;;39.09;26.75;100774.13;5083775;28;20021;-59
2022/08/13 01:50:29;;;;;;;13.05;2.28;;;;;;;39.05;27.23;100779.09;5086950;28;20040;-59
2022/08/13 01:52:08;;;;;;;14.18;1.92;;;;;;;38.89;27.35;100782.09;5075870;28;20037;-58
2022/08/13 01:54:37;;;;;;;12.13;1.90;;;;;;;38.95;27.48;100786.75;5086152;28;20112;-59
2022/08/13 01:57:07;;;;;;;15.60;2.33;;;;;;;39.12;27.53;100783.75;5082503;28;20047;-58
2022/08/13 01:59:36;;;;;;;11.77;2.10;;;;;;;38.97;27.40;100780.63;5077035;28;20025;-59
2022/08/13 02:02:08;;;;;;;21.08;2.35;;;;;;;38.91;27.39;100786.06;5090750;28;20040;-58
2022/08/13 02:04:34;;;;;;;23.33;2.30;;;;;;;38.78;27.94;100798.72;5092477;28;20071;-58
2022/08/13 02:07:01;;;;;;;23.65;3.03;;;;;;;38.67;28.22;100799.09;5082258;28;20021;-58
2022/08/13 02:09:28;;;;;;;13.45;2.00;;;;;;;38.55;28.77;100814.06;5086312;28;20398;-58
2022/08/13 02:11:55;;;;;;;13.63;2.78;;;;;;;38.36;29.10;100813.06;5075669;28;20056;-58
2022/08/13 02:14:22;;;;;;;14.38;2.30;;;;;;;38.33;29.15;100811.13;5084553;28;20031;-59
2022/08/13 02:16:49;;;;;;;17.70;2.47;;;;;;;38.22;29.40;100807.84;5077145;28;20028;-60
2022/08/13 02:19:16;;;;;;;22.95;2.50;;;;;;;38.17;29.80;100828.25;5083348;28;20093;-60
2022/08/13 02:21:44;;;;;;;25.15;2.97;;;;;;;38.05;29.81;100830.59;5084697;28;20024;-61
2022/08/13 02:24:16;;;;;;;18.90;2.72;;;;;;;37.95;29.93;100830.94;5083671;28;20047;-58
2022/08/13 02:26:44;;;;;;;25.83;3.20;;;;;;;37.89;29.88;100830.72;5078089;28;20111;-60
2022/08/13 02:29:12;;;;;;;30.05;3.42;;;;;;;37.78;29.93;100830.22;5074832;28;20043;-58
2022/08/13 02:31:44;;;;;;;33.25;3.20;;;;;;;37.76;30.38;100838.38;5088528;28;20482;-60
2022/08/13 02:34:12;;;;;;;28.08;3.10;;;;;;;37.64;29.86;100836.28;5083859;28;20040;-59
2022/08/13 02:36:40;;;;;;;27.33;3.13;;;;;;;37.63;30.04;100829.00;5083603;28;20081;-60
2022/08/13 02:39:09;;;;;;;26.50;2.83;;;;;;;37.60;29.92;100830.72;5082499;28;20033;-60
2022/08/13 02:41:42;;;;;;;35.15;3.38;;;;;;;37.45;30.08;100832.34;5082849;28;20033;-59
2022/08/13 02:44:12;;;;;;;26.73;3.10;;;;;;;37.36;30.13;100835.03;5090879;28;20039;-58
2022/08/13 02:46:43;;;;;;;23.50;3.30;;;;;;;37.41;29.74;100846.63;5085898;28;20035;-59
2022/08/13 02:49:10;;;;;;;30.02;4.03;;;;;;;37.31;29.99;100844.88;5084335;28;20039;-59
2022/08/13 02:51:38;;;;;;;38.83;3.35;;;;;;;37.35;29.83;100854.09;5094026;28;20024;-59
2022/08/13 02:54:06;;;;;;;25.77;3.45;;;;;;;37.24;30.10;100853.53;5088285;28;20084;-60
2022/08/13 02:56:36;;;;;;;31.05;3.70;;;;;;;37.33;29.76;100850.88;5088572;28;20032;-59
2022/08/13 02:59:10;;;;;;;31.27;4.28;;;;;;;37.31;30.17;100850.53;5082094;28;20028;-59
2022/08/13 03:01:39;;;;;;;32.00;4.28;;;;;;;37.19;30.22;100859.75;5087198;28;20079;-59
2022/08/13 03:04:08;;;;;;;44.38;4.22;;;;;;;37.15;30.49;100861.88;5086314;28;20032;-59
2022/08/13 03:06:36;;;;;;;36.58;4.22;;;;;;;37.10;30.93;100865.25;5090188;28;20038;-59
2022/08/13 03:09:04;;;;;;;37.58;3.72;;;;;;;36.83;31.45;100835.16;5085577;28;20539;-59
2022/08/13 03:11:36;;;;;;;39.22;4.63;;;;;;;36.94;31.73;100865.25;5086042;28;20127;-60
2022/08/13 03:14:09;;;;;;;23.85;3.92;;;;;;;36.92;33.11;100866.50;5089921;28;20032;-59
2022/08/13 03:16:36;;;;;;;41.10;4.90;;;;;;;36.83;33.49;100860.66;5092431;28;20414;-60
2022/08/13 03:19:03;;;;;;;33.80;4.00;;;;;;;36.72;34.56;100881.94;5087976;28;20475;-60
2022/08/13 03:21:42;;;;;;;37.25;4.03;;;;;;;36.59;35.43;100882.63;5084212;28;20032;-59
2022/08/13 03:24:12;;;;;;;36.70;3.83;;;;;;;36.51;35.82;100880.41;5093487;28;20489;-59
2022/08/13 03:26:38;;;;;;;33.63;4.20;;;;;;;36.50;36.80;100879.63;5089146;28;20022;-59
2022/08/13 03:29:07;;;;;;;19.27;3.30;;;;;;;36.40;36.47;100886.31;5087311;28;20140;-59
2022/08/13 03:31:36;;;;;;;24.23;3.40;;;;;;;36.27;37.20;100874.84;5090483;28;20478;-59
2022/08/13 03:34:04;;;;;;;58.63;5.57;;;;;;;36.28;37.15;100890.59;5092389;28;20516;-59
2022/08/13 03:36:32;;;;;;;30.92;3.80;;;;;;;36.34;37.31;100887.28;5095379;28;20035;-58
2022/08/13 03:38:59;;;;;;;26.23;4.10;;;;;;;36.39;37.66;100890.38;5087358;28;20379;-60
2022/08/13 03:41:26;;;;;;;23.52;3.08;;;;;;;36.22;38.44;100889.50;5094894;28;20124;-59
2022/08/13 03:43:54;;;;;;;18.80;2.80;;;;;;;36.16;38.88;100902.59;5093378;28;20147;-58
2022/08/13 03:46:25;;;;;;;19.65;2.60;;;;;;;36.11;38.65;100897.44;5078875;28;20031;-58
2022/08/13 03:48:53;;;;;;;18.20;2.80;;;;;;;35.97;39.67;100909.84;5085666;28;20033;-58
2022/08/13 03:51:23;;;;;;;17.08;2.80;;;;;;;36.01;39.48;100912.59;5087274;28;20052;-57
2022/08/13 03:53:54;;;;;;;17.50;3.28;;;;;;;35.99;39.69;100912.25;5078019;28;20033;-58
2022/08/13 03:56:22;;;;;;;11.35;2.65;;;;;;;35.97;40.22;100926.03;5090224;28;20029;-58
2022/08/13 03:58:50;;;;;;;17.38;3.50;;;;;;;35.91;40.83;100927.75;5076538;28;20029;-58
2022/08/13 04:01:17;;;;;;;14.95;2.83;;;;;;;35.82;40.06;100930.31;5085877;28;20375;-58
2022/08/13 04:03:45;;;;;;;16.10;3.47;;;;;;;35.77;41.21;100933.66;5094854;28;20035;-58
2022/08/13 04:06:24;;;;;;;14.50;2.58;;;;;;;35.74;41.21;100929.69;5091409;28;20048;-58
2022/08/13 04:08:52;;;;;;;15.25;2.67;;;;;;;35.69;41.43;100938.63;5083093;28;20035;-58
2022/08/13 04:11:22;;;;;;;12.52;2.85;;;;;;;35.62;41.98;100939.59;5081938;28;20028;-58
2022/08/13 04:13:49;;;;;;;12.65;3.28;;;;;;;35.63;41.73;100946.03;5091018;28;20042;-58
2022/08/13 04:16:20;;;;;;;10.80;2.38;;;;;;;35.56;42.08;100952.63;5077997;28;20115;-58
2022/08/13 04:18:49;;;;;;;10.27;2.30;;;;;;;35.59;41.83;100954.59;5086272;28;20435;-58
2022/08/13 04:21:18;;;;;;;12.07;2.33;;;;;;;35.53;42.66;100955.50;5086581;28;20031;-58
2022/08/13 04:23:46;;;;;;;9.50;2.30;;;;;;;35.46;42.81;100953.59;5077967;28;20040;-58
2022/08/13 04:26:15;;;;;;;9.07;1.92;;;;;;;35.30;43.42;100944.97;5090726;28;20100;-58
2022/08/13 04:28:45;;;;;;;9.40;1.95;;;;;;;35.29;44.28;100965.97;5081596;28;20111;-58
2022/08/13 04:31:12;;;;;;;10.18;2.25;;;;;;;35.29;44.25;100977.28;5087307;28;20107;-58
2022/08/13 04:33:39;;;;;;;15.88;2.38;;;;;;;35.17;44.77;100983.53;5093869;28;20043;-58
2022/08/13 04:36:07;;;;;;;18.05;2.55;;;;;;;35.03;44.90;100982.53;5091802;28;20024;-58
2022/08/13 04:38:35;;;;;;;18.92;2.60;;;;;;;35.00;45.25;100985.38;5080142;28;20546;-58
2022/08/13 04:41:02;;;;;;;34.03;3.95;;;;;;;34.90;45.42;100980.72;5089794;28;20481;-58
2022/08/13 04:43:29;;;;;;;24.70;3.22;;;;;;;34.81;46.52;100987.63;5091857;28;20071;-58
2022/08/13 04:46:00;;;;;;;14.30;2.38;;;;;;;34.79;46.55;100997.78;5080058;28;20028;-58
2022/08/13 04:48:31;;;;;;;18.45;2.88;;;;;;;34.69;46.83;100998.72;5084540;28;20059;-58
2022/08/13 04:50:58;;;;;;;16.02;2.80;;;;;;;34.67;47.98;100995.53;5087469;28;20076;-59
2022/08/13 04:53:27;;;;;;;16.00;3.35;;;;;;;34.65;47.60;101006.44;5089837;28;20536;-58
2022/08/13 04:55:55;;;;;;;16.52;3.38;;;;;;;34.56;48.17;101006.16;5086754;28;20071;-58
2022/08/13 04:58:23;;;;;;;21.15;4.70;;;;;;;34.56;48.08;101003.34;5086035;28;20376;-58
2022/08/13 05:00:50;;;;;;;18.50;4.82;;;;;;;34.42;47.92;100996.63;5085721;28;21244;-59
2022/08/13 05:03:21;;;;;;;13.57;3.25;;;;;;;34.39;48.30;101000.31;5081319;28;20031;-58
2022/08/13 05:05:49;;;;;;;10.00;2.42;;;;;;;34.28;48.58;101005.22;5082713;28;20037;-58
2022/08/13 05:08:17;;;;;;;9.65;2.92;;;;;;;34.24;48.48;101005.28;5080048;28;20653;-58
2022/08/13 05:10:45;;;;;;;10.93;2.80;;;;;;;34.32;48.93;101011.66;5088035;28;20042;-58
2022/08/13 05:13:29;;;;;;;14.35;2.55;;;;;;;34.17;49.13;101004.56;5085030;28;20054;-58
2022/08/13 05:16:07;;;;;;;7.90;2.28;;;;;;;34.15;49.05;101007.81;5087934;28;20081;-58
2022/08/13 05:18:37;;;;;;;9.48;2.17;;;;;;;34.19;48.91;100997.28;5081993;28;20491;-58
2022/08/13 05:21:08;;;;;;;11.52;1.95;;;;;;;34.17;48.61;100998.94;5081310;28;20111;-58
2022/08/13 05:23:37;;;;;;;9.05;2.47;;;;;;;34.12;48.99;100999.41;5081942;28;20024;-58
2022/08/13 05:26:05;;;;;;;5.85;2.10;;;;;;;34.06;48.78;100995.41;5083056;28;20020;-58
2022/08/13 05:28:32;;;;;;;8.77;2.10;;;;;;;34.07;48.54;101005.47;5081036;28;20028;-59
2022/08/13 05:31:00;;;;;;;7.13;1.88;;;;;;;34.07;48.48;100994.19;5080826;28;20400;-58
2022/08/13 05:33:29;;;;;;;10.82;2.97;;;;;;;34.01;48.28;101004.34;5079816;28;20048;-58
2022/08/13 05:36:01;;;;;;;10.43;2.72;;;;;;;34.01;48.94;101007.16;5083377;28;20115;-59
2022/08/13 05:38:30;;;;;;;12.32;2.47;;;;;;;33.91;48.88;100997.56;5079818;28;20035;-58
2022/08/13 05:40:59;;;;;;;9.18;4.00;;;;;;;34.03;47.99;101010.34;5079773;28;20060;-58
2022/08/13 05:43:30;;;;;;;16.20;5.95;;;;;;;33.98;48.23;101011.63;5082262;28;20036;-60
2022/08/13 05:46:00;;;;;;;8.63;2.95;;;;;;;33.94;48.56;101010.88;5085111;28;20031;-59
2022/08/13 05:48:41;;;;;;;10.57;3.78;;;;;;;33.88;48.74;101015.34;5083256;28;20028;-59
2022/08/13 05:51:10;;;;;;;7.97;3.35;;;;;;;33.74;49.34;101004.97;5081092;28;20130;-60
2022/08/13 05:53:38;;;;;;;11.30;2.50;;;;;;;33.70;50.05;101009.03;5087462;28;20024;-58
2022/08/13 05:56:11;;;;;;;10.75;2.70;;;;;;;33.67;49.64;101010.66;5084332;28;20036;-58
2022/08/13 05:58:38;;;;;;;10.10;3.13;;;;;;;33.69;49.47;101001.78;5082077;28;20529;-58
2022/08/13 06:03:51;;;;;;;8.23;3.40;;;;;;;33.68;49.90;101017.91;5083305;28;20037;-60
2022/08/13 06:06:18;;;;;;;7.93;2.70;;;;;;;33.64;49.90;101012.31;5086878;28;20027;-60
2022/08/13 06:08:45;;;;;;;8.63;2.38;;;;;;;33.58;50.08;101018.81;5075069;28;20043;-59
2022/08/13 06:11:16;;;;;;;8.43;2.90;;;;;;;33.47;50.44;101015.28;5076174;28;20556;-59
2022/08/13 06:13:45;;;;;;;8.40;2.60;;;;;;;33.54;50.34;101023.66;5085628;28;20494;-60
2022/08/13 06:16:13;;;;;;;4.47;2.13;;;;;;;33.45;50.67;101032.59;5082755;28;20409;-60
2022/08/13 06:18:46;;;;;;;10.50;2.47;;;;;;;33.37;50.70;101024.59;5084021;28;20139;-60
2022/08/13 06:21:15;;;;;;;10.38;2.40;;;;;;;33.30;51.07;101040.31;5087311;28;20032;-60
2022/08/13 06:23:45;;;;;;;8.32;2.58;;;;;;;33.28;50.94;101064.50;5088815;28;20074;-59
2022/08/13 06:26:19;;;;;;;11.45;2.85;;;;;;;33.23;52.25;101068.56;5084276;28;20107;-60
2022/08/13 06:28:53;;;;;;;20.70;3.67;;;;;;;33.17;52.71;101066.56;5086448;28;20032;-60
2022/08/13 06:31:28;;;;;;;18.48;3.10;;;;;;;33.03;53.18;101053.34;5086733;28;20032;-59
2022/08/13 06:33:55;;;;;;;15.07;3.85;;;;;;;32.97;51.57;101053.00;5091114;28;20115;-59
2022/08/13 06:36:28;;;;;;;23.17;4.13;;;;;;;32.96;52.74;101061.84;5084186;28;20020;-60
2022/08/13 06:38:59;;;;;;;15.63;3.55;;;;;;;32.86;52.82;101082.44;5080635;28;20035;-59
2022/08/13 06:41:27;;;;;;;11.57;3.28;;;;;;;32.82;53.07;101081.63;5084981;28;20029;-59
2022/08/13 06:43:55;;;;;;;13.55;4.40;;;;;;;32.78;54.13;101070.34;5087618;28;20032;-60
2022/08/13 06:46:25;;;;;;;15.98;4.50;;;;;;;32.66;54.67;101054.69;5088171;28;20491;-60
2022/08/13 06:48:53;;;;;;;14.93;5.03;;;;;;;32.66;54.83;101068.78;5088078;28;20038;-59
2022/08/13 06:51:22;;;;;;;13.70;4.93;;;;;;;32.56;55.43;101066.81;5087284;28;20035;-59
2022/08/13 06:53:49;;;;;;;10.18;5.13;;;;;;;32.52;55.16;101065.22;5089411;28;20040;-58
2022/08/13 06:56:25;;;;;;;11.57;4.85;;;;;;;32.49;55.59;101072.44;5089679;28;20110;-58
2022/08/13 06:58:54;;;;;;;10.43;4.72;;;;;;;32.44;56.03;101070.84;5078360;28;20063;-59
2022/08/13 07:01:24;;;;;;;11.77;4.38;;;;;;;32.39;56.26;101079.72;5084209;28;20038;-59
2022/08/13 07:03:53;;;;;;;9.50;5.25;;;;;;;32.42;55.63;101075.28;5088770;28;20068;-59
2022/08/13 07:06:26;;;;;;;11.10;5.10;;;;;;;32.36;55.67;101080.53;5095158;28;20430;-60
2022/08/13 07:08:57;;;;;;;12.18;5.22;;;;;;;32.29;56.03;101083.34;5085114;28;20028;-59
2022/08/13 07:11:29;;;;;;;10.52;4.68;;;;;;;32.29;55.99;101074.91;5093186;28;20052;-59
2022/08/13 07:13:59;;;;;;;11.13;4.57;;;;;;;32.29;55.38;101080.53;5093917;28;20047;-60
2022/08/13 07:16:30;;;;;;;9.95;4.25;;;;;;;32.26;56.00;101074.88;5084702;28;20047;-59
2022/08/13 07:18:59;;;;;;;10.15;4.47;;;;;;;32.23;55.11;101081.31;5089331;28;20105;-59
2022/08/13 07:21:27;;;;;;;7.75;4.30;;;;;;;32.16;55.76;101077.34;5083292;28;20093;-59
2022/08/13 07:23:55;;;;;;;46.35;6.10;;;;;;;32.15;56.32;101081.34;5082757;28;20063;-59
2022/08/13 07:26:27;;;;;;;10.55;3.85;;;;;;;32.12;56.18;101075.72;5080942;28;20039;-59
2022/08/13 07:28:54;;;;;;;10.40;3.50;;;;;;;32.10;56.60;101066.88;5085899;28;20032;-60
2022/08/13 07:31:25;;;;;;;9.70;2.90;;;;;;;32.14;56.36;101073.31;5086966;28;20027;-59
2022/08/13 07:33:55;;;;;;;7.40;2.70;;;;;;;32.05;56.34;101070.09;5084325;28;20119;-60
2022/08/13 07:36:24;;;;;;;7.57;2.83;;;;;;;32.04;56.13;101069.31;5077565;28;20115;-58
2022/08/13 07:38:52;;;;;;;5.55;2.40;;;;;;;32.02;55.91;101080.16;5080575;28;20032;-60
2022/08/13 07:41:20;;;;;;;5.70;2.55;;;;;;;31.95;56.39;101074.50;5076303;28;20025;-59
2022/08/13 07:43:47;;;;;;;7.10;2.53;;;;;;;32.04;56.44;101079.75;5080214;28;20035;-59
2022/08/13 07:46:18;;;;;;;7.07;2.78;;;;;;;32.02;56.82;101073.72;5095046;28;20122;-58
2022/08/13 07:48:52;;;;;;;6.90;2.58;;;;;;;31.99;57.20;101071.72;5099845;28;20034;-58
2022/08/13 07:51:21;;;;;;;8.82;2.25;;;;;;;32.00;56.56;101064.91;5105093;28;20123;-59
2022/08/13 07:53:49;;;;;;;7.43;2.10;;;;;;;31.94;57.08;101058.06;5102969;28;20035;-59
2022/08/13 07:56:20;;;;;;;12.75;2.42;;;;;;;31.94;57.52;101064.47;5101783;28;20118;-59
2022/08/13 07:58:48;;;;;;;7.32;2.10;;;;;;;31.87;58.30;101070.13;5102747;28;20136;-58
2022/08/13 08:01:14;;;;;;;5.38;2.03;;;;;;;31.76;58.81;101074.94;5084868;28;20040;-59
2022/08/13 08:03:45;;;;;;;8.02;1.98;;;;;;;31.78;58.83;101072.53;5094237;28;20081;-59
2022/08/13 08:06:17;;;;;;;7.40;2.10;;;;;;;31.74;58.92;101071.72;5093645;28;20024;-59
2022/08/13 08:08:45;;;;;;;4.30;2.05;;;;;;;31.65;59.29;101065.66;5093633;28;20153;-60
2022/08/13 08:14:00;;;;;;;12.50;2.58;;;;;;;31.62;59.69;101066.47;5076688;28;20044;-60
2022/08/13 08:16:31;;;;;;;6.40;2.40;;;;;;;31.57;59.53;101056.41;5089880;28;20331;-60
2022/08/13 08:18:59;;;;;;;6.60;2.22;;;;;;;31.49;60.30;101064.03;5093568;28;20028;-60
2022/08/13 08:21:27;;;;;;;10.38;2.70;;;;;;;31.48;61.43;101075.69;5093564;28;20402;-60
2022/08/13 08:23:59;;;;;;;4.40;2.28;;;;;;;31.51;61.36;101074.88;5093746;28;20497;-60
2022/08/13 08:26:28;;;;;;;8.02;2.58;;;;;;;31.51;61.67;101078.50;5093646;28;20047;-60
2022/08/13 08:28:56;;;;;;;8.13;2.60;;;;;;;31.44;62.33;101069.28;5093848;28;20032;-60
2022/08/13 08:31:23;;;;;;;7.97;2.60;;;;;;;31.40;62.31;101080.47;5093638;28;20390;-59
2022/08/13 08:33:51;;;;;;;7.80;2.65;;;;;;;31.40;60.98;101063.63;5092690;28;20024;-60
2022/08/13 08:36:18;;;;;;;11.88;3.28;;;;;;;31.40;62.05;101077.66;5093453;28;20112;-61
2022/08/13 08:44:23;;;;;;;10.82;3.05;;;;;;;31.31;61.83;101088.50;5073519;28;20124;-59
2022/08/13 08:47:11;;;;;;;7.82;2.63;;;;;;;31.28;61.51;101092.09;5074168;28;20032;-60
2022/08/13 08:49:39;;;;;;;4.57;1.70;;;;;;;31.28;60.94;101100.53;5073849;28;20060;-59
2022/08/13 08:52:08;;;;;;;4.90;1.92;;;;;;;31.26;61.24;101091.69;5072820;28;20131;-60
2022/08/13 08:54:36;;;;;;;6.05;1.85;;;;;;;31.34;60.98;101098.13;5072877;28;20032;-59
2022/08/13 08:57:04;;;;;;;4.53;1.60;;;;;;;31.36;60.90;101098.53;5073116;28;20537;-59
2022/08/13 08:59:45;;;;;;;4.80;1.75;;;;;;;31.36;60.21;101102.13;5073278;28;20037;-59
2022/08/13 09:02:23;;;;;;;5.65;2.28;;;;;;;31.32;60.07;101104.16;5073399;28;20114;-60
2022/08/13 09:04:57;;;;;;;17.88;2.78;;;;;;;31.38;59.50;101110.16;5073769;28;20028;-60
2022/08/13 09:07:25;;;;;;;7.60;2.40;;;;;;;31.47;58.97;101102.97;5073874;28;20039;-60
2022/08/13 09:09:56;;;;;;;7.47;2.30;;;;;;;31.36;59.27;101104.94;5073818;28;20036;-59
2022/08/13 09:12:26;;;;;;;11.40;2.88;;;;;;;31.36;59.55;101102.13;5073766;28;20064;-60
2022/08/13 09:14:56;;;;;;;8.52;2.60;;;;;;;31.37;59.41;101120.59;5073943;28;20033;-60
2022/08/13 09:17:25;;;;;;;5.15;2.30;;;;;;;31.36;59.25;101113.38;5073556;28;20028;-59
2022/08/13 09:19:51;;;;;;;4.80;2.22;;;;;;;31.33;59.53;101119.78;5073559;28;20055;-59
2022/08/13 09:22:23;;;;;;;4.68;2.58;;;;;;;31.23;59.59;101112.94;5072944;28;20036;-59
2022/08/13 09:24:52;;;;;;;7.82;3.22;;;;;;;31.29;59.69;101121.00;5072562;28;20115;-59
2022/08/13 09:27:19;;;;;;;5.35;2.80;;;;;;;31.32;59.07;101123.81;5073459;28;20540;-60
2022/08/13 09:29:50;;;;;;;9.18;3.03;;;;;;;31.32;59.59;101137.84;5073457;28;20036;-59
2022/08/13 09:32:17;;;;;;;5.18;2.60;;;;;;;31.24;59.86;101127.81;5073346;28;20032;-59
2022/08/13 09:34:44;;;;;;;6.70;2.35;;;;;;;31.22;59.41;101142.22;5073454;28;20074;-60
2022/08/13 09:37:12;;;;;;;5.55;2.33;;;;;;;31.31;59.02;101163.53;5073406;28;20107;-60
2022/08/13 09:39:58;;;;;;;4.93;1.95;;;;;;;31.52;58.53;101177.63;5073401;28;20024;-59
2022/08/13 09:42:35;;;;;;;8.88;2.05;;;;;;;31.75;57.54;101194.97;5073318;28;20125;-59
2022/08/13 09:45:03;;;;;;;30.60;3.15;;;;;;;31.67;54.02;101213.00;5073283;28;20417;-59
2022/08/13 09:47:31;;;;;;;19.45;2.63;;;;;;;31.62;53.79;101215.41;5073305;28;20100;-59
2022/08/13 09:49:57;;;;;;;16.75;2.72;;;;;;;31.53;52.88;101219.38;5073332;28;20439;-59
2022/08/13 09:52:24;;;;;;;16.38;2.90;;;;;;;31.48;53.44;101221.78;5073361;28;20375;-59
2022/08/13 09:54:51;;;;;;;8.13;2.17;;;;;;;31.39;53.87;101216.50;5073081;28;20057;-60
2022/08/13 09:57:20;;;;;;;9.80;2.65;;;;;;;31.55;53.99;101235.84;5073128;28;20025;-59
2022/08/13 09:59:50;;;;;;;13.18;2.47;;;;;;;31.58;53.67;101238.66;5073100;28;20033;-60
2022/08/13 10:02:16;;;;;;;10.65;1.98;;;;;;;31.63;52.53;101233.88;5072927;28;20056;-58
2022/08/13 10:04:44;;;;;;;9.40;1.50;;;;;;;31.74;51.21;101229.91;5073113;28;20032;-59
2022/08/13 10:07:12;;;;;;;15.98;2.10;;;;;;;31.79;50.19;101223.94;5073017;28;20036;-60
2022/08/13 10:09:39;;;;;;;11.40;1.92;;;;;;;31.67;50.33;101227.06;5072945;28;20043;-58
2022/08/13 10:12:09;;;;;;;28.20;3.03;;;;;;;31.62;49.60;101224.66;5073043;28;20021;-59
2022/08/13 10:14:36;;;;;;;37.45;4.32;;;;;;;31.47;49.55;101228.59;5072915;28;20041;-59
2022/08/13 10:17:04;;;;;;;27.80;3.08;;;;;;;31.30;50.21;101221.72;5072982;28;20035;-59
2022/08/13 10:19:31;;;;;;;34.65;3.80;;;;;;;31.15;50.59;101214.38;5072961;28;20029;-59
2022/08/13 10:21:58;;;;;;;34.00;2.72;;;;;;;31.09;50.60;101218.78;5072672;28;20029;-59
2022/08/13 10:24:25;;;;;;;29.27;3.03;;;;;;;31.01;51.24;101219.91;5072683;28;20025;-59
2022/08/13 10:26:51;;;;;;;40.25;3.88;;;;;;;30.93;51.19;101228.31;5072881;28;20533;-59
2022/08/13 10:29:18;;;;;;;36.67;3.15;;;;;;;30.89;51.61;101221.06;5073005;28;20037;-59
2022/08/13 10:31:45;;;;;;;40.25;3.45;;;;;;;30.76;51.61;101225.38;5072725;28;20029;-59
2022/08/13 10:34:11;;;;;;;23.58;2.40;;;;;;;30.73;51.96;101226.97;5072615;28;20075;-58
2022/08/13 10:36:39;;;;;;;30.63;2.88;;;;;;;30.69;51.85;101223.31;5072863;28;20024;-57
2022/08/13 10:39:06;;;;;;;36.53;3.83;;;;;;;30.63;52.58;101219.28;5072637;28;20482;-59
2022/08/13 10:41:33;;;;;;;15.80;2.25;;;;;;;30.54;52.68;101218.78;5072668;28;20029;-58
2022/08/13 10:44:00;;;;;;;17.75;2.20;;;;;;;30.56;52.81;101216.38;5072664;28;20042;-59
2022/08/13 10:46:31;;;;;;;18.45;2.33;;;;;;;30.50;52.60;101223.53;5072571;28;20490;-59
2022/08/13 10:48:58;;;;;;;19.35;2.53;;;;;;;30.49;52.28;101216.31;5072735;28;20082;-59
2022/08/13 10:51:29;;;;;;;11.10;1.90;;;;;;;30.47;52.13;101218.72;5072526;28;20141;-58
2022/08/13 10:53:59;;;;;;;11.10;1.73;;;;;;;30.40;51.83;101213.06;5072671;28;20094;-59
2022/08/13 10:56:28;;;;;;;7.70;1.50;;;;;;;30.38;51.41;101211.44;5072695;28;20037;-59
2022/08/13 10:58:57;;;;;;;11.75;1.70;;;;;;;30.32;51.77;101196.16;5072521;28;20028;-58
2022/08/13 11:01:26;;;;;;;9.32;1.52;;;;;;;30.30;51.57;101195.72;5072338;28;20522;-59
2022/08/13 11:03:58;;;;;;;9.43;1.75;;;;;;;30.23;51.42;101180.88;5073099;28;20041;-59
2022/08/13 11:06:28;;;;;;;8.25;1.40;;;;;;;30.29;51.47;101207.34;5072933;28;20114;-59
2022/08/13 11:08:57;;;;;;;15.20;1.88;;;;;;;30.26;51.72;101200.50;5072555;28;20104;-58
2022/08/13 11:11:25;;;;;;;13.75;1.95;;;;;;;30.21;52.00;101203.69;5072348;28;20455;-58
2022/08/13 11:13:52;;;;;;;11.38;1.90;;;;;;;30.11;52.28;101190.38;5072476;28;20016;-59
2022/08/13 11:19:11;;;;;;;10.52;1.90;;;;;;;30.11;52.00;101183.94;5072520;28;20037;-60
2022/08/13 11:21:38;;;;;;;10.90;1.77;;;;;;;30.10;52.40;101185.94;5072496;28;20094;-58
2022/08/13 11:24:04;;;;;;;6.00;1.30;;;;;;;30.07;52.30;101192.34;5071122;28;20020;-58
2022/08/13 11:26:31;;;;;;;12.38;1.90;;;;;;;30.01;52.49;101188.25;5072237;28;20076;-59
2022/08/13 11:28:58;;;;;;;6.53;1.50;;;;;;;29.95;52.72;101187.78;5072282;28;20495;-59
2022/08/13 11:31:24;;;;;;;9.73;1.80;;;;;;;30.03;52.58;101197.88;5072201;28;20128;-59
2022/08/13 11:33:51;;;;;;;8.40;1.58;;;;;;;30.06;52.88;101193.53;5074664;28;20021;-59
2022/08/13 11:36:18;;;;;;;11.32;2.05;;;;;;;30.02;53.04;101190.66;5075642;28;20036;-59
2022/08/13 11:38:44;;;;;;;8.75;2.10;;;;;;;29.96;53.58;101177.38;5075730;28;20028;-59
2022/08/13 11:41:12;;;;;;;12.27;1.98;;;;;;;29.89;54.26;101182.91;5075592;28;20094;-58
2022/08/13 11:43:38;;;;;;;14.63;2.47;;;;;;;29.92;54.51;101184.94;5075708;28;20032;-59
2022/08/13 11:46:05;;;;;;;10.80;1.88;;;;;;;29.96;54.37;101188.59;5075651;28;20074;-59
2022/08/13 11:48:32;;;;;;;13.27;2.30;;;;;;;29.94;56.01;101188.97;5075383;28;20034;-58
2022/08/13 11:50:58;;;;;;;13.43;2.88;;;;;;;29.58;59.30;101198.19;5075394;28;20046;-59